• Join FlightAware (Why Join?)
  • Login
  • US Flag 
06:07PM EDT


 

Airport Tracker/Info


-or-


 

Live Flight TrackerFlight Track Log ✈ SWA3054 ✈ 12-Apr-2013 ✈ KMCO - KEYW

Flight Track Log - Related Links

Times and Time Zones

All times are in EDT time to prevent confusion due to time zone crossing. See the SWA3054 flight status page for this flight to view local times or setup timezone preferences in your user account.

Time Position Orientation Groundspeed Altitude Reporting Facility
EDT Latitude Longitude Course Direction KTS MPH feet Rate Location/Type
10:44AM 28.3667 -81.3333 192° South 188 216 3,500  Level Orlando TRACON
10:45AM 28.3167 -81.3667 210° Southwest 235 270 4,900 1,500 Climbing Orlando TRACON
10:46AM 28.2500 -81.3833 192° South 248 285 6,400 2,520 Climbing Orlando TRACON
10:48AM 28.0794 -81.4383 196° South 287 330 12,900 2,940 Climbing Miami Center
10:49AM 27.9869 -81.4581 191° South 314 361 16,000 1,500 Climbing Miami Center
10:50AM 27.8942 -81.4872 196° South 340 391 16,000  Level Miami Center
10:51AM 27.8131 -81.5450 212° Southwest 345 397 16,000 660 Level Miami Center
10:52AM 27.7183 -81.5692 193° South 345 397 17,400 1,860 Climbing Miami Center
10:53AM 27.6225 -81.5653 178° South 363 418 19,800 2,760 Climbing Miami Center
10:54AM 27.5017 -81.5625 179° South 394 453 23,000 2,160 Climbing Miami Center
10:55AM 27.3931 -81.5581 178° South 394 453 24,200 1,080 Climbing Miami Center
10:56AM 27.2925 -81.5072 156° South 407 468 25,200 900 Climbing Miami Center
10:57AM 27.2003 -81.4569 154° Southeast 407 468 26,000 360 Climbing Miami Center
10:58AM 27.0919 -81.4481 176° South 396 456 26,000  Level Miami Center
10:59AM 26.9664 -81.4547 183° South 396 456 26,000  Level Miami Center
11:00AM 26.8536 -81.4594 182° South 410 472 26,000  Level Miami Center
11:01AM 26.7408 -81.4622 181° South 403 464 26,000  Level Miami Center
11:02AM 26.6403 -81.4675 183° South 408 470 26,000  Level Miami Center
11:03AM 26.5150 -81.4719 182° South 403 464 26,000  Level Miami Center
11:04AM 26.4042 -81.4792 183° South 403 464 26,000  Level Miami Center
11:05AM 26.2914 -81.4817 181° South 403 464 26,000  Level Miami Center
11:06AM 26.1806 -81.4867 182° South 403 464 26,000  Level Miami Center
11:07AM 26.0675 -81.4914 182° South 403 464 26,000  Level Miami Center
11:08AM 25.9567 -81.4964 182° South 403 464 26,000  Level Miami Center
11:09AM 25.8439 -81.5014 182° South 403 464 26,000 -1,200 Level Miami Center
11:10AM 25.7308 -81.5061 182° South 403 464 23,600 -2,400 Descending Miami Center
11:11AM 25.6200 -81.5111 182° South 403 464 21,200 -2,280 Descending Miami Center
11:12AM 25.5239 -81.5142 182° South 398 458 19,100 -2,160 Descending Miami Center
11:13AM 25.4167 -81.5378 191° South 371 427 16,900 -2,100 Descending Miami Center
11:14AM 25.3217 -81.5686 196° South 359 413 14,900 -2,040 Descending Miami Center
11:15AM 25.2308 -81.5994 197° South 354 407 12,900 -1,920 Descending Miami Center
11:16AM 25.1444 -81.6281 197° South 343 395 11,100 -1,380 Descending Miami Center
11:17AM 25.0697 -81.6758 210° Southwest 325 374 10,200 -1,200 Descending Miami Center
11:18AM 25.0056 -81.7214 213° Southwest 301 346 8,700 -1,500 Descending Miami Center
11:19AM 24.9394 -81.7644 211° Southwest 289 333 7,300 -1,440 Descending Miami Center
11:20AM 24.8775 -81.8078 212° Southwest 279 321 5,900 -1,440 Descending Miami Center
11:21AM 24.8175 -81.8489 212° Southwest 274 315 4,500 -1,380 Descending Miami Center
11:22AM 24.7539 -81.8761 201° Southwest 261 300 3,200 -960 Descending Miami Center
11:23AM 24.6950 -81.8897 192° South 236 272 2,600 -900 Descending Miami Center
11:24AM 24.6467 -81.8992 190° South 204 235 1,500 -600 Descending Miami Center
11:25AM 24.6053 -81.8906 169° South 174 200 1,400 -120 Descending Miami Center
11:27AM 24.5561 -81.7596 126° Southeast  Level Estimated
11:34AM 24.5561 -81.7596 126° Southeast  Level Estimated
11:35AM 24.5561 -81.7596 126° Southeast  Level Estimated
11:36AM 24.5561 -81.7596 126° Southeast  Level Estimated
11:37AM 24.5561 -81.7596 126° Southeast  Level Estimated